sensor_id;sensor_type;location;lat;lon;timestamp;temperature;humidity
28959;DHT22;16066;0.000;0.000;2022-12-18T00:01:48;17.60;38.40
28959;DHT22;16066;0.000;0.000;2022-12-18T00:04:21;17.60;38.50
28959;DHT22;16066;0.000;0.000;2022-12-18T00:06:46;17.50;38.40
28959;DHT22;16066;0.000;0.000;2022-12-18T00:09:12;17.50;38.40
28959;DHT22;16066;0.000;0.000;2022-12-18T00:11:37;17.50;38.50
28959;DHT22;16066;0.000;0.000;2022-12-18T00:14:03;17.40;38.40
28959;DHT22;16066;0.000;0.000;2022-12-18T00:16:29;17.40;38.40
28959;DHT22;16066;0.000;0.000;2022-12-18T00:18:57;17.40;38.40
28959;DHT22;16066;0.000;0.000;2022-12-18T00:21:22;17.30;38.30
28959;DHT22;16066;0.000;0.000;2022-12-18T00:23:49;17.30;38.30
28959;DHT22;16066;0.000;0.000;2022-12-18T00:26:18;17.30;38.40
28959;DHT22;16066;0.000;0.000;2022-12-18T00:28:44;17.30;38.40
28959;DHT22;16066;0.000;0.000;2022-12-18T00:31:18;17.20;38.40
28959;DHT22;16066;0.000;0.000;2022-12-18T00:33:44;17.20;38.30
28959;DHT22;16066;0.000;0.000;2022-12-18T00:36:13;17.20;38.40
28959;DHT22;16066;0.000;0.000;2022-12-18T00:38:40;17.20;38.50
28959;DHT22;16066;0.000;0.000;2022-12-18T00:41:06;17.10;38.30
28959;DHT22;16066;0.000;0.000;2022-12-18T00:43:32;17.10;38.40
28959;DHT22;16066;0.000;0.000;2022-12-18T00:45:59;17.10;38.40
28959;DHT22;16066;0.000;0.000;2022-12-18T00:48:24;17.10;38.40
28959;DHT22;16066;0.000;0.000;2022-12-18T00:50:50;17.10;38.30
28959;DHT22;16066;0.000;0.000;2022-12-18T00:53:16;17.10;38.30
28959;DHT22;16066;0.000;0.000;2022-12-18T00:55:42;17.00;38.20
28959;DHT22;16066;0.000;0.000;2022-12-18T00:58:09;17.00;38.30
28959;DHT22;16066;0.000;0.000;2022-12-18T01:00:36;17.10;38.30
28959;DHT22;16066;0.000;0.000;2022-12-18T01:03:02;17.00;38.30
28959;DHT22;16066;0.000;0.000;2022-12-18T01:05:28;17.00;38.30
28959;DHT22;16066;0.000;0.000;2022-12-18T01:07:53;17.00;38.40
28959;DHT22;16066;0.000;0.000;2022-12-18T01:10:20;17.00;38.40
28959;DHT22;16066;0.000;0.000;2022-12-18T01:12:45;17.00;38.30
28959;DHT22;16066;0.000;0.000;2022-12-18T01:15:12;16.90;38.30
28959;DHT22;16066;0.000;0.000;2022-12-18T01:17:38;16.90;38.20
28959;DHT22;16066;0.000;0.000;2022-12-18T01:20:04;16.90;38.30
28959;DHT22;16066;0.000;0.000;2022-12-18T01:22:30;16.90;38.30
28959;DHT22;16066;0.000;0.000;2022-12-18T01:24:55;16.90;38.40
28959;DHT22;16066;0.000;0.000;2022-12-18T01:27:21;16.90;38.30
28959;DHT22;16066;0.000;0.000;2022-12-18T01:29:47;16.80;38.30
28959;DHT22;16066;0.000;0.000;2022-12-18T01:32:14;16.80;38.30
28959;DHT22;16066;0.000;0.000;2022-12-18T01:34:39;16.80;38.30
28959;DHT22;16066;0.000;0.000;2022-12-18T01:37:05;16.80;38.30
28959;DHT22;16066;0.000;0.000;2022-12-18T01:39:31;16.80;38.40
28959;DHT22;16066;0.000;0.000;2022-12-18T01:42:02;16.80;38.40
28959;DHT22;16066;0.000;0.000;2022-12-18T01:44:57;16.80;38.40
28959;DHT22;16066;0.000;0.000;2022-12-18T01:47:55;16.80;38.40
28959;DHT22;16066;0.000;0.000;2022-12-18T01:50:25;16.70;38.20
28959;DHT22;16066;0.000;0.000;2022-12-18T01:52:55;16.70;38.30
28959;DHT22;16066;0.000;0.000;2022-12-18T01:55:24;16.70;38.30
28959;DHT22;16066;0.000;0.000;2022-12-18T01:57:53;16.70;38.40
28959;DHT22;16066;0.000;0.000;2022-12-18T02:00:21;16.70;38.40
28959;DHT22;16066;0.000;0.000;2022-12-18T02:02:47;16.70;38.40
28959;DHT22;16066;0.000;0.000;2022-12-18T02:05:16;16.70;38.50
28959;DHT22;16066;0.000;0.000;2022-12-18T02:08:02;16.70;38.40
28959;DHT22;16066;0.000;0.000;2022-12-18T02:13:43;16.60;38.30
28959;DHT22;16066;0.000;0.000;2022-12-18T02:16:43;16.60;38.30
28959;DHT22;16066;0.000;0.000;2022-12-18T02:22:06;16.60;38.30
28959;DHT22;16066;0.000;0.000;2022-12-18T02:24:40;16.60;38.30
28959;DHT22;16066;0.000;0.000;2022-12-18T02:27:07;16.60;38.30
28959;DHT22;16066;0.000;0.000;2022-12-18T02:29:41;16.60;38.30
28959;DHT22;16066;0.000;0.000;2022-12-18T02:32:16;16.60;38.40
28959;DHT22;16066;0.000;0.000;2022-12-18T02:34:44;16.50;38.20
28959;DHT22;16066;0.000;0.000;2022-12-18T02:37:13;16.60;38.30
28959;DHT22;16066;0.000;0.000;2022-12-18T02:39:42;16.50;38.30
28959;DHT22;16066;0.000;0.000;2022-12-18T02:42:09;16.50;38.30
28959;DHT22;16066;0.000;0.000;2022-12-18T02:44:42;16.50;38.90
28959;DHT22;16066;0.000;0.000;2022-12-18T02:47:11;16.50;38.40
28959;DHT22;16066;0.000;0.000;2022-12-18T02:52:25;16.50;38.40
28959;DHT22;16066;0.000;0.000;2022-12-18T02:58:14;16.50;38.30
28959;DHT22;16066;0.000;0.000;2022-12-18T03:00:51;16.50;38.50
28959;DHT22;16066;0.000;0.000;2022-12-18T03:03:29;16.40;38.40
28959;DHT22;16066;0.000;0.000;2022-12-18T03:06:12;16.50;38.50
28959;DHT22;16066;0.000;0.000;2022-12-18T03:08:45;16.50;38.40
28959;DHT22;16066;0.000;0.000;2022-12-18T03:11:13;16.40;38.40
28959;DHT22;16066;0.000;0.000;2022-12-18T03:13:50;16.40;38.30
28959;DHT22;16066;0.000;0.000;2022-12-18T03:16:22;16.40;38.30
28959;DHT22;16066;0.000;0.000;2022-12-18T03:19:01;16.40;38.30
28959;DHT22;16066;0.000;0.000;2022-12-18T03:21:42;16.40;38.30
28959;DHT22;16066;0.000;0.000;2022-12-18T03:24:09;16.40;38.30
28959;DHT22;16066;0.000;0.000;2022-12-18T03:26:38;16.40;38.40
28959;DHT22;16066;0.000;0.000;2022-12-18T03:29:13;16.40;38.30
28959;DHT22;16066;0.000;0.000;2022-12-18T03:31:41;16.40;38.40
28959;DHT22;16066;0.000;0.000;2022-12-18T03:34:19;16.40;38.40
28959;DHT22;16066;0.000;0.000;2022-12-18T03:36:45;16.30;38.30
28959;DHT22;16066;0.000;0.000;2022-12-18T03:39:11;16.30;38.30
28959;DHT22;16066;0.000;0.000;2022-12-18T03:44:28;16.40;38.40
28959;DHT22;16066;0.000;0.000;2022-12-18T03:47:03;16.30;38.30
28959;DHT22;16066;0.000;0.000;2022-12-18T03:52:20;16.30;38.30
28959;DHT22;16066;0.000;0.000;2022-12-18T03:54:50;16.30;38.30
28959;DHT22;16066;0.000;0.000;2022-12-18T03:57:19;16.30;38.30
28959;DHT22;16066;0.000;0.000;2022-12-18T03:59:47;16.30;38.20
28959;DHT22;16066;0.000;0.000;2022-12-18T04:02:15;16.30;38.30
28959;DHT22;16066;0.000;0.000;2022-12-18T04:04:43;16.30;38.30
28959;DHT22;16066;0.000;0.000;2022-12-18T04:07:10;16.30;38.30
28959;DHT22;16066;0.000;0.000;2022-12-18T04:09:38;16.20;38.20
28959;DHT22;16066;0.000;0.000;2022-12-18T04:12:05;16.30;38.30
28959;DHT22;16066;0.000;0.000;2022-12-18T04:14:31;16.30;38.30
28959;DHT22;16066;0.000;0.000;2022-12-18T04:17:01;16.30;38.30
28959;DHT22;16066;0.000;0.000;2022-12-18T04:19:26;16.30;38.30
28959;DHT22;16066;0.000;0.000;2022-12-18T04:21:52;16.20;38.10
28959;DHT22;16066;0.000;0.000;2022-12-18T04:24:17;16.20;38.30
28959;DHT22;16066;0.000;0.000;2022-12-18T04:26:43;16.20;38.20
28959;DHT22;16066;0.000;0.000;2022-12-18T04:29:08;16.20;38.20
28959;DHT22;16066;0.000;0.000;2022-12-18T04:31:34;16.20;38.30
28959;DHT22;16066;0.000;0.000;2022-12-18T04:33:59;16.20;38.30
28959;DHT22;16066;0.000;0.000;2022-12-18T04:36:25;16.20;38.20
28959;DHT22;16066;0.000;0.000;2022-12-18T04:38:50;16.20;38.20
28959;DHT22;16066;0.000;0.000;2022-12-18T04:41:16;16.20;38.30
28959;DHT22;16066;0.000;0.000;2022-12-18T04:43:41;16.20;38.30
28959;DHT22;16066;0.000;0.000;2022-12-18T04:46:08;16.20;38.30
28959;DHT22;16066;0.000;0.000;2022-12-18T04:48:36;16.20;38.30
28959;DHT22;16066;0.000;0.000;2022-12-18T04:51:02;16.20;38.20
28959;DHT22;16066;0.000;0.000;2022-12-18T04:53:27;16.10;38.20
28959;DHT22;16066;0.000;0.000;2022-12-18T04:56:07;16.10;38.20
28959;DHT22;16066;0.000;0.000;2022-12-18T04:58:32;16.10;38.30
28959;DHT22;16066;0.000;0.000;2022-12-18T05:00:58;16.10;38.20
28959;DHT22;16066;0.000;0.000;2022-12-18T05:03:24;16.10;38.30
28959;DHT22;16066;0.000;0.000;2022-12-18T05:05:50;16.10;38.20
28959;DHT22;16066;0.000;0.000;2022-12-18T05:08:16;16.10;38.20
28959;DHT22;16066;0.000;0.000;2022-12-18T05:10:42;16.10;38.10
28959;DHT22;16066;0.000;0.000;2022-12-18T05:13:07;16.10;38.20
28959;DHT22;16066;0.000;0.000;2022-12-18T05:15:33;16.10;38.20
28959;DHT22;16066;0.000;0.000;2022-12-18T05:17:59;16.10;38.30
28959;DHT22;16066;0.000;0.000;2022-12-18T05:20:25;16.10;38.10
28959;DHT22;16066;0.000;0.000;2022-12-18T05:22:51;16.10;38.30
28959;DHT22;16066;0.000;0.000;2022-12-18T05:25:17;16.10;38.30
28959;DHT22;16066;0.000;0.000;2022-12-18T05:27:42;16.10;38.30
28959;DHT22;16066;0.000;0.000;2022-12-18T05:30:09;16.10;38.10
28959;DHT22;16066;0.000;0.000;2022-12-18T05:32:35;16.10;38.10
28959;DHT22;16066;0.000;0.000;2022-12-18T05:35:00;16.10;38.20
28959;DHT22;16066;0.000;0.000;2022-12-18T05:37:26;16.10;38.30
28959;DHT22;16066;0.000;0.000;2022-12-18T05:39:51;16.00;38.20
28959;DHT22;16066;0.000;0.000;2022-12-18T05:42:17;16.00;38.10
28959;DHT22;16066;0.000;0.000;2022-12-18T05:44:43;16.00;38.20
28959;DHT22;16066;0.000;0.000;2022-12-18T05:47:08;16.00;38.20
28959;DHT22;16066;0.000;0.000;2022-12-18T05:49:34;16.00;38.20
28959;DHT22;16066;0.000;0.000;2022-12-18T05:51:59;16.00;38.10
28959;DHT22;16066;0.000;0.000;2022-12-18T05:54:27;16.00;38.20
28959;DHT22;16066;0.000;0.000;2022-12-18T05:56:53;16.00;38.20
28959;DHT22;16066;0.000;0.000;2022-12-18T05:59:19;16.00;38.30
28959;DHT22;16066;0.000;0.000;2022-12-18T06:01:44;16.00;38.20
28959;DHT22;16066;0.000;0.000;2022-12-18T06:04:10;16.00;38.30
28959;DHT22;16066;0.000;0.000;2022-12-18T06:06:35;16.00;38.20
28959;DHT22;16066;0.000;0.000;2022-12-18T06:09:02;16.00;38.20
28959;DHT22;16066;0.000;0.000;2022-12-18T06:11:34;16.00;38.30
28959;DHT22;16066;0.000;0.000;2022-12-18T06:13:59;16.00;38.20
28959;DHT22;16066;0.000;0.000;2022-12-18T06:16:26;16.00;38.30
28959;DHT22;16066;0.000;0.000;2022-12-18T06:18:51;16.00;38.20
28959;DHT22;16066;0.000;0.000;2022-12-18T06:21:17;15.90;38.20
28959;DHT22;16066;0.000;0.000;2022-12-18T06:23:42;16.00;38.20
28959;DHT22;16066;0.000;0.000;2022-12-18T06:26:11;16.00;38.20
28959;DHT22;16066;0.000;0.000;2022-12-18T06:28:37;15.90;38.10
28959;DHT22;16066;0.000;0.000;2022-12-18T06:31:03;16.00;38.20
28959;DHT22;16066;0.000;0.000;2022-12-18T06:33:29;15.90;38.00
28959;DHT22;16066;0.000;0.000;2022-12-18T06:36:07;15.90;38.20
28959;DHT22;16066;0.000;0.000;2022-12-18T06:38:35;15.90;38.10
28959;DHT22;16066;0.000;0.000;2022-12-18T06:41:00;15.90;38.20
28959;DHT22;16066;0.000;0.000;2022-12-18T06:43:26;15.90;38.10
28959;DHT22;16066;0.000;0.000;2022-12-18T06:45:58;16.00;37.90
28959;DHT22;16066;0.000;0.000;2022-12-18T06:48:24;16.10;37.70
28959;DHT22;16066;0.000;0.000;2022-12-18T06:50:49;16.30;37.70
28959;DHT22;16066;0.000;0.000;2022-12-18T06:53:15;16.40;37.70
28959;DHT22;16066;0.000;0.000;2022-12-18T06:55:40;16.50;37.40
28959;DHT22;16066;0.000;0.000;2022-12-18T06:58:06;16.60;37.30
28959;DHT22;16066;0.000;0.000;2022-12-18T07:00:32;16.70;37.30
28959;DHT22;16066;0.000;0.000;2022-12-18T07:02:57;16.80;37.30
28959;DHT22;16066;0.000;0.000;2022-12-18T07:05:22;16.90;37.30
28959;DHT22;16066;0.000;0.000;2022-12-18T07:07:48;16.90;37.20
28959;DHT22;16066;0.000;0.000;2022-12-18T07:10:14;17.00;37.20
28959;DHT22;16066;0.000;0.000;2022-12-18T07:12:39;17.10;37.10
28959;DHT22;16066;0.000;0.000;2022-12-18T07:15:05;17.20;37.10
28959;DHT22;16066;0.000;0.000;2022-12-18T07:17:31;17.30;37.00
28959;DHT22;16066;0.000;0.000;2022-12-18T07:19:56;17.40;36.90
28959;DHT22;16066;0.000;0.000;2022-12-18T07:22:22;17.50;36.70
28959;DHT22;16066;0.000;0.000;2022-12-18T07:24:48;17.60;36.70
28959;DHT22;16066;0.000;0.000;2022-12-18T07:27:14;17.70;36.60
28959;DHT22;16066;0.000;0.000;2022-12-18T07:29:39;17.80;36.60
28959;DHT22;16066;0.000;0.000;2022-12-18T07:32:05;17.90;36.60
28959;DHT22;16066;0.000;0.000;2022-12-18T07:34:30;18.00;36.50
28959;DHT22;16066;0.000;0.000;2022-12-18T07:36:56;18.10;36.40
28959;DHT22;16066;0.000;0.000;2022-12-18T07:39:22;18.20;36.30
28959;DHT22;16066;0.000;0.000;2022-12-18T07:41:47;18.20;36.20
28959;DHT22;16066;0.000;0.000;2022-12-18T07:44:33;18.30;36.00
28959;DHT22;16066;0.000;0.000;2022-12-18T07:46:58;18.40;36.10
28959;DHT22;16066;0.000;0.000;2022-12-18T07:49:23;18.40;35.90
28959;DHT22;16066;0.000;0.000;2022-12-18T07:51:49;18.50;35.80
28959;DHT22;16066;0.000;0.000;2022-12-18T07:54:15;18.50;35.40
28959;DHT22;16066;0.000;0.000;2022-12-18T07:56:40;18.70;35.30
28959;DHT22;16066;0.000;0.000;2022-12-18T07:59:06;18.70;35.10
28959;DHT22;16066;0.000;0.000;2022-12-18T08:01:31;18.80;35.10
28959;DHT22;16066;0.000;0.000;2022-12-18T08:03:58;18.90;35.10
28959;DHT22;16066;0.000;0.000;2022-12-18T08:06:24;18.90;35.00
28959;DHT22;16066;0.000;0.000;2022-12-18T08:08:51;19.00;35.20
28959;DHT22;16066;0.000;0.000;2022-12-18T08:11:16;19.00;35.00
28959;DHT22;16066;0.000;0.000;2022-12-18T08:13:42;19.00;35.10
28959;DHT22;16066;0.000;0.000;2022-12-18T08:16:07;19.00;35.00
28959;DHT22;16066;0.000;0.000;2022-12-18T08:18:35;19.10;35.10
28959;DHT22;16066;0.000;0.000;2022-12-18T08:21:11;19.10;35.00
28959;DHT22;16066;0.000;0.000;2022-12-18T08:23:37;19.10;35.00
28959;DHT22;16066;0.000;0.000;2022-12-18T08:26:03;19.10;35.00
28959;DHT22;16066;0.000;0.000;2022-12-18T08:28:28;19.10;35.10
28959;DHT22;16066;0.000;0.000;2022-12-18T08:30:54;19.10;35.10
28959;DHT22;16066;0.000;0.000;2022-12-18T08:33:19;19.10;34.80
28959;DHT22;16066;0.000;0.000;2022-12-18T08:35:45;19.10;34.40
28959;DHT22;16066;0.000;0.000;2022-12-18T08:38:10;19.00;34.70
28959;DHT22;16066;0.000;0.000;2022-12-18T08:40:36;18.90;34.00
28959;DHT22;16066;0.000;0.000;2022-12-18T08:43:01;18.90;34.40
28959;DHT22;16066;0.000;0.000;2022-12-18T08:45:45;18.80;33.90
28959;DHT22;16066;0.000;0.000;2022-12-18T08:48:11;18.80;33.70
28959;DHT22;16066;0.000;0.000;2022-12-18T08:50:36;18.70;33.70
28959;DHT22;16066;0.000;0.000;2022-12-18T08:53:02;18.70;33.80
28959;DHT22;16066;0.000;0.000;2022-12-18T08:55:27;18.70;34.00
28959;DHT22;16066;0.000;0.000;2022-12-18T08:57:53;18.80;34.00
28959;DHT22;16066;0.000;0.000;2022-12-18T09:00:18;18.80;33.90
28959;DHT22;16066;0.000;0.000;2022-12-18T09:02:44;18.80;33.70
28959;DHT22;16066;0.000;0.000;2022-12-18T09:05:09;18.80;33.60
28959;DHT22;16066;0.000;0.000;2022-12-18T09:07:35;18.80;33.50
28959;DHT22;16066;0.000;0.000;2022-12-18T09:10:01;18.80;33.50
28959;DHT22;16066;0.000;0.000;2022-12-18T09:12:26;18.80;33.70
28959;DHT22;16066;0.000;0.000;2022-12-18T09:14:52;18.80;33.70
28959;DHT22;16066;0.000;0.000;2022-12-18T09:17:17;18.80;33.50
28959;DHT22;16066;0.000;0.000;2022-12-18T09:19:43;18.80;33.50
28959;DHT22;16066;0.000;0.000;2022-12-18T09:22:09;18.80;33.40
28959;DHT22;16066;0.000;0.000;2022-12-18T09:24:35;18.80;33.30
28959;DHT22;16066;0.000;0.000;2022-12-18T09:27:00;18.90;33.30
28959;DHT22;16066;0.000;0.000;2022-12-18T09:29:26;18.90;33.30
28959;DHT22;16066;0.000;0.000;2022-12-18T09:31:51;18.90;33.00
28959;DHT22;16066;0.000;0.000;2022-12-18T09:34:17;18.90;33.30
28959;DHT22;16066;0.000;0.000;2022-12-18T09:36:43;19.00;33.60
28959;DHT22;16066;0.000;0.000;2022-12-18T09:39:08;19.00;33.60
28959;DHT22;16066;0.000;0.000;2022-12-18T09:41:52;19.00;33.70
28959;DHT22;16066;0.000;0.000;2022-12-18T09:44:42;19.10;33.70
28959;DHT22;16066;0.000;0.000;2022-12-18T09:49:45;19.10;33.70
28959;DHT22;16066;0.000;0.000;2022-12-18T09:52:25;19.10;33.90
28959;DHT22;16066;0.000;0.000;2022-12-18T09:55:01;19.10;34.20
28959;DHT22;16066;0.000;0.000;2022-12-18T09:57:30;19.10;34.10
28959;DHT22;16066;0.000;0.000;2022-12-18T10:00:16;19.20;34.20
28959;DHT22;16066;0.000;0.000;2022-12-18T10:02:43;19.20;34.30
28959;DHT22;16066;0.000;0.000;2022-12-18T10:05:16;19.20;34.40
28959;DHT22;16066;0.000;0.000;2022-12-18T10:08:15;19.20;34.40
28959;DHT22;16066;0.000;0.000;2022-12-18T10:10:53;19.20;34.30
28959;DHT22;16066;0.000;0.000;2022-12-18T10:13:31;19.20;34.40
28959;DHT22;16066;0.000;0.000;2022-12-18T10:16:12;19.20;34.50
28959;DHT22;16066;0.000;0.000;2022-12-18T10:19:00;19.20;34.80
28959;DHT22;16066;0.000;0.000;2022-12-18T10:21:56;19.20;34.50
28959;DHT22;16066;0.000;0.000;2022-12-18T10:29:37;19.20;34.80
28959;DHT22;16066;0.000;0.000;2022-12-18T10:32:03;19.20;34.50
28959;DHT22;16066;0.000;0.000;2022-12-18T10:34:28;19.20;34.20
28959;DHT22;16066;0.000;0.000;2022-12-18T10:36:54;19.20;34.10
28959;DHT22;16066;0.000;0.000;2022-12-18T10:39:24;19.20;34.60
28959;DHT22;16066;0.000;0.000;2022-12-18T10:41:51;19.30;35.00
28959;DHT22;16066;0.000;0.000;2022-12-18T10:44:20;19.30;35.30
28959;DHT22;16066;0.000;0.000;2022-12-18T10:46:49;19.30;35.20
28959;DHT22;16066;0.000;0.000;2022-12-18T10:49:29;19.40;35.10
28959;DHT22;16066;0.000;0.000;2022-12-18T10:52:27;19.40;35.10
28959;DHT22;16066;0.000;0.000;2022-12-18T10:54:57;19.40;35.10
28959;DHT22;16066;0.000;0.000;2022-12-18T10:57:36;19.40;34.90
28959;DHT22;16066;0.000;0.000;2022-12-18T11:00:28;19.50;34.90
28959;DHT22;16066;0.000;0.000;2022-12-18T11:02:54;19.50;35.00
28959;DHT22;16066;0.000;0.000;2022-12-18T11:05:30;19.40;34.80
28959;DHT22;16066;0.000;0.000;2022-12-18T11:07:56;19.40;34.70
28959;DHT22;16066;0.000;0.000;2022-12-18T11:10:30;19.40;34.40
28959;DHT22;16066;0.000;0.000;2022-12-18T11:13:17;19.40;34.30
28959;DHT22;16066;0.000;0.000;2022-12-18T11:15:44;19.40;34.20
28959;DHT22;16066;0.000;0.000;2022-12-18T11:18:18;19.40;34.10
28959;DHT22;16066;0.000;0.000;2022-12-18T11:20:54;19.40;34.20
28959;DHT22;16066;0.000;0.000;2022-12-18T11:23:21;19.40;34.00
28959;DHT22;16066;0.000;0.000;2022-12-18T11:25:59;19.40;34.10
28959;DHT22;16066;0.000;0.000;2022-12-18T11:28:36;19.40;34.20
28959;DHT22;16066;0.000;0.000;2022-12-18T11:31:28;19.40;34.40
28959;DHT22;16066;0.000;0.000;2022-12-18T11:36:22;19.40;34.30
28959;DHT22;16066;0.000;0.000;2022-12-18T11:38:50;19.40;34.10
28959;DHT22;16066;0.000;0.000;2022-12-18T11:41:31;19.50;34.50
28959;DHT22;16066;0.000;0.000;2022-12-18T11:44:26;19.50;34.50
28959;DHT22;16066;0.000;0.000;2022-12-18T11:47:08;19.60;34.60
28959;DHT22;16066;0.000;0.000;2022-12-18T11:49:35;19.60;34.70
28959;DHT22;16066;0.000;0.000;2022-12-18T11:52:24;19.60;34.60
28959;DHT22;16066;0.000;0.000;2022-12-18T11:54:51;19.60;34.60
28959;DHT22;16066;0.000;0.000;2022-12-18T12:00:04;19.60;34.60
28959;DHT22;16066;0.000;0.000;2022-12-18T12:05:58;19.60;34.60
28959;DHT22;16066;0.000;0.000;2022-12-18T12:17:11;19.60;34.40
28959;DHT22;16066;0.000;0.000;2022-12-18T12:22:17;19.50;34.10
28959;DHT22;16066;0.000;0.000;2022-12-18T12:25:14;19.50;34.10
28959;DHT22;16066;0.000;0.000;2022-12-18T12:30:57;19.50;34.10
28959;DHT22;16066;0.000;0.000;2022-12-18T12:33:36;19.50;34.20
28959;DHT22;16066;0.000;0.000;2022-12-18T12:39:06;19.60;34.40
28959;DHT22;16066;0.000;0.000;2022-12-18T12:41:34;19.60;34.30
28959;DHT22;16066;0.000;0.000;2022-12-18T12:44:24;19.60;34.10
28959;DHT22;16066;0.000;0.000;2022-12-18T12:46:52;19.60;34.20
28959;DHT22;16066;0.000;0.000;2022-12-18T12:49:21;19.60;34.20
28959;DHT22;16066;0.000;0.000;2022-12-18T12:52:03;19.60;34.30
28959;DHT22;16066;0.000;0.000;2022-12-18T12:54:32;19.60;34.30
28959;DHT22;16066;0.000;0.000;2022-12-18T12:57:07;19.50;34.20
28959;DHT22;16066;0.000;0.000;2022-12-18T13:03:02;19.50;34.20
28959;DHT22;16066;0.000;0.000;2022-12-18T13:05:34;19.50;34.30
28959;DHT22;16066;0.000;0.000;2022-12-18T13:08:09;19.50;34.30
28959;DHT22;16066;0.000;0.000;2022-12-18T13:10:37;19.50;34.30
28959;DHT22;16066;0.000;0.000;2022-12-18T13:13:14;19.50;34.40
28959;DHT22;16066;0.000;0.000;2022-12-18T13:18:28;19.40;34.40
28959;DHT22;16066;0.000;0.000;2022-12-18T13:25:52;19.40;34.50
28959;DHT22;16066;0.000;0.000;2022-12-18T13:31:00;19.40;34.60
28959;DHT22;16066;0.000;0.000;2022-12-18T13:33:34;19.40;34.50
28959;DHT22;16066;0.000;0.000;2022-12-18T13:38:52;19.50;34.50
28959;DHT22;16066;0.000;0.000;2022-12-18T13:41:33;19.50;34.50
28959;DHT22;16066;0.000;0.000;2022-12-18T13:44:31;19.50;34.40
28959;DHT22;16066;0.000;0.000;2022-12-18T13:46:59;19.50;34.40
28959;DHT22;16066;0.000;0.000;2022-12-18T13:49:39;19.50;34.30
28959;DHT22;16066;0.000;0.000;2022-12-18T13:52:25;19.50;34.30
28959;DHT22;16066;0.000;0.000;2022-12-18T13:54:57;19.50;34.20
28959;DHT22;16066;0.000;0.000;2022-12-18T13:57:34;19.50;34.30
28959;DHT22;16066;0.000;0.000;2022-12-18T14:02:48;19.50;34.30
28959;DHT22;16066;0.000;0.000;2022-12-18T14:05:23;19.50;34.60
28959;DHT22;16066;0.000;0.000;2022-12-18T14:07:49;19.50;34.70
28959;DHT22;16066;0.000;0.000;2022-12-18T14:10:16;19.50;34.60
28959;DHT22;16066;0.000;0.000;2022-12-18T14:12:45;19.40;34.40
28959;DHT22;16066;0.000;0.000;2022-12-18T14:15:40;19.40;34.60
28959;DHT22;16066;0.000;0.000;2022-12-18T14:21:02;19.40;34.80
28959;DHT22;16066;0.000;0.000;2022-12-18T14:23:39;19.30;34.70
28959;DHT22;16066;0.000;0.000;2022-12-18T14:26:26;19.40;34.90
28959;DHT22;16066;0.000;0.000;2022-12-18T14:28:58;19.30;34.80
28959;DHT22;16066;0.000;0.000;2022-12-18T14:31:28;19.30;34.90
28959;DHT22;16066;0.000;0.000;2022-12-18T14:33:54;19.40;35.00
28959;DHT22;16066;0.000;0.000;2022-12-18T14:36:25;19.40;35.00
28959;DHT22;16066;0.000;0.000;2022-12-18T14:38:55;19.40;34.90
28959;DHT22;16066;0.000;0.000;2022-12-18T14:41:22;19.40;34.90
28959;DHT22;16066;0.000;0.000;2022-12-18T14:43:50;19.40;35.10
28959;DHT22;16066;0.000;0.000;2022-12-18T14:46:40;19.40;35.20
28959;DHT22;16066;0.000;0.000;2022-12-18T14:52:38;19.40;35.20
28959;DHT22;16066;0.000;0.000;2022-12-18T14:54:38;19.30;35.10
28959;DHT22;16066;0.000;0.000;2022-12-18T14:57:24;19.30;35.20
28959;DHT22;16066;0.000;0.000;2022-12-18T14:59:50;19.30;35.10
28959;DHT22;16066;0.000;0.000;2022-12-18T15:02:27;19.30;35.20
28959;DHT22;16066;0.000;0.000;2022-12-18T15:05:17;19.30;35.20
28959;DHT22;16066;0.000;0.000;2022-12-18T15:07:48;19.30;35.20
28959;DHT22;16066;0.000;0.000;2022-12-18T15:10:22;19.30;35.30
28959;DHT22;16066;0.000;0.000;2022-12-18T15:21:10;19.20;35.10
28959;DHT22;16066;0.000;0.000;2022-12-18T15:23:48;19.20;35.10
28959;DHT22;16066;0.000;0.000;2022-12-18T15:26:16;19.20;35.20
28959;DHT22;16066;0.000;0.000;2022-12-18T15:28:56;19.30;35.30
28959;DHT22;16066;0.000;0.000;2022-12-18T15:31:33;19.30;35.30
28959;DHT22;16066;0.000;0.000;2022-12-18T15:34:12;19.30;35.20
28959;DHT22;16066;0.000;0.000;2022-12-18T15:36:39;19.30;35.20
28959;DHT22;16066;0.000;0.000;2022-12-18T15:39:04;19.30;35.20
28959;DHT22;16066;0.000;0.000;2022-12-18T15:41:32;19.30;35.20
28959;DHT22;16066;0.000;0.000;2022-12-18T15:43:59;19.30;35.30
28959;DHT22;16066;0.000;0.000;2022-12-18T15:46:25;19.30;35.30
28959;DHT22;16066;0.000;0.000;2022-12-18T15:48:56;19.30;35.30
28959;DHT22;16066;0.000;0.000;2022-12-18T15:51:26;19.30;35.30
28959;DHT22;16066;0.000;0.000;2022-12-18T15:53:54;19.30;35.40
28959;DHT22;16066;0.000;0.000;2022-12-18T15:56:20;19.30;35.40
28959;DHT22;16066;0.000;0.000;2022-12-18T15:59:12;19.30;35.50
28959;DHT22;16066;0.000;0.000;2022-12-18T16:01:38;19.30;35.50
28959;DHT22;16066;0.000;0.000;2022-12-18T16:04:04;19.30;35.60
28959;DHT22;16066;0.000;0.000;2022-12-18T16:06:29;19.20;35.50
28959;DHT22;16066;0.000;0.000;2022-12-18T16:08:55;19.20;35.50
28959;DHT22;16066;0.000;0.000;2022-12-18T16:11:26;19.20;35.50
28959;DHT22;16066;0.000;0.000;2022-12-18T16:16:30;19.20;35.80
28959;DHT22;16066;0.000;0.000;2022-12-18T16:18:56;19.20;35.70
28959;DHT22;16066;0.000;0.000;2022-12-18T16:21:21;19.20;35.70
28959;DHT22;16066;0.000;0.000;2022-12-18T16:23:47;19.20;35.60
28959;DHT22;16066;0.000;0.000;2022-12-18T16:26:12;19.20;35.60
28959;DHT22;16066;0.000;0.000;2022-12-18T16:28:38;19.30;35.60
28959;DHT22;16066;0.000;0.000;2022-12-18T16:31:04;19.20;35.50
28959;DHT22;16066;0.000;0.000;2022-12-18T16:33:30;19.30;35.60
28959;DHT22;16066;0.000;0.000;2022-12-18T16:35:55;19.20;35.10
28959;DHT22;16066;0.000;0.000;2022-12-18T16:38:21;19.30;35.30
28959;DHT22;16066;0.000;0.000;2022-12-18T16:40:46;19.30;35.30
28959;DHT22;16066;0.000;0.000;2022-12-18T16:43:35;19.30;35.30
28959;DHT22;16066;0.000;0.000;2022-12-18T16:46:00;19.30;35.30
28959;DHT22;16066;0.000;0.000;2022-12-18T16:48:26;19.30;35.30
28959;DHT22;16066;0.000;0.000;2022-12-18T16:51:03;19.30;35.20
28959;DHT22;16066;0.000;0.000;2022-12-18T16:53:29;19.30;35.10
28959;DHT22;16066;0.000;0.000;2022-12-18T16:55:55;19.30;35.20
28959;DHT22;16066;0.000;0.000;2022-12-18T16:58:21;19.20;35.10
28959;DHT22;16066;0.000;0.000;2022-12-18T17:00:46;19.20;35.10
28959;DHT22;16066;0.000;0.000;2022-12-18T17:03:12;19.20;35.00
28959;DHT22;16066;0.000;0.000;2022-12-18T17:05:38;19.20;35.10
28959;DHT22;16066;0.000;0.000;2022-12-18T17:08:04;19.20;35.10
28959;DHT22;16066;0.000;0.000;2022-12-18T17:10:29;19.20;35.10
28959;DHT22;16066;0.000;0.000;2022-12-18T17:12:55;19.10;35.20
28959;DHT22;16066;0.000;0.000;2022-12-18T17:15:20;19.10;35.20
28959;DHT22;16066;0.000;0.000;2022-12-18T17:17:46;19.10;35.30
28959;DHT22;16066;0.000;0.000;2022-12-18T17:20:11;19.10;35.50
28959;DHT22;16066;0.000;0.000;2022-12-18T17:22:37;19.10;35.50
28959;DHT22;16066;0.000;0.000;2022-12-18T17:25:03;19.10;35.70
28959;DHT22;16066;0.000;0.000;2022-12-18T17:27:28;19.20;35.90
28959;DHT22;16066;0.000;0.000;2022-12-18T17:29:54;19.20;35.80